Falmouth, Maine
Current Conditions -  °F | °C
As of 11:51 AM on Sunday 23 Nov 2014 (Local Time) from KPWM Reporting Station
Few Clouds Few Clouds  
Wind Chill: 56°   Ceiling: Unl
Heat Index: 56°   Visibility: 10mi
Dew Point: 39°   Wind: 7mph
Humidity: 53%   Direction: 230°SW
Pressure: 30.06"   Gusts: NA
Location:  43.73°N, 70.24°W
Report Text: KPWM 231651Z 23006KT 10SM FEW080 FEW200 13/04 A3006 RMK AO2 SLP180 T01330039
Loading
Personal Weather Stations






























Interactive Weather Map New forecast layout! Learn more

10-Day Weather Forecast

Advertisements
Track Severe Weather on mobile